sensor_id;sensor_type;location;lat;lon;timestamp;P1;durP1;ratioP1;P2;durP2;ratioP2
57800;SDS011;43627;42.728;23.256;2023-04-10T00:02:08;7.60;;;5.05;;
57800;SDS011;43627;42.728;23.256;2023-04-10T00:04:35;8.13;;;5.18;;
57800;SDS011;43627;42.728;23.256;2023-04-10T00:07:02;7.35;;;4.32;;
57800;SDS011;43627;42.728;23.256;2023-04-10T00:09:29;8.07;;;4.57;;
57800;SDS011;43627;42.728;23.256;2023-04-10T00:11:58;7.35;;;4.15;;
57800;SDS011;43627;42.728;23.256;2023-04-10T00:14:26;8.35;;;4.20;;
57800;SDS011;43627;42.728;23.256;2023-04-10T00:16:52;7.78;;;4.35;;
57800;SDS011;43627;42.728;23.256;2023-04-10T00:19:19;9.27;;;5.18;;
57800;SDS011;43627;42.728;23.256;2023-04-10T00:21:46;8.57;;;4.80;;
57800;SDS011;43627;42.728;23.256;2023-04-10T00:24:13;11.57;;;6.18;;
57800;SDS011;43627;42.728;23.256;2023-04-10T00:26:40;8.13;;;4.70;;
57800;SDS011;43627;42.728;23.256;2023-04-10T00:29:07;8.88;;;5.78;;
57800;SDS011;43627;42.728;23.256;2023-04-10T00:31:34;10.40;;;5.68;;
57800;SDS011;43627;42.728;23.256;2023-04-10T00:34:01;8.77;;;5.78;;
57800;SDS011;43627;42.728;23.256;2023-04-10T00:36:28;9.45;;;5.40;;
57800;SDS011;43627;42.728;23.256;2023-04-10T00:38:54;10.60;;;6.72;;
57800;SDS011;43627;42.728;23.256;2023-04-10T00:41:21;9.65;;;6.28;;
57800;SDS011;43627;42.728;23.256;2023-04-10T00:43:49;10.05;;;5.68;;
57800;SDS011;43627;42.728;23.256;2023-04-10T00:46:20;9.83;;;4.97;;
57800;SDS011;43627;42.728;23.256;2023-04-10T00:48:49;7.95;;;5.28;;
57800;SDS011;43627;42.728;23.256;2023-04-10T00:51:18;9.75;;;4.97;;
57800;SDS011;43627;42.728;23.256;2023-04-10T00:53:46;6.75;;;4.15;;
57800;SDS011;43627;42.728;23.256;2023-04-10T00:56:17;8.68;;;5.57;;
57800;SDS011;43627;42.728;23.256;2023-04-10T00:58:44;10.02;;;4.32;;
57800;SDS011;43627;42.728;23.256;2023-04-10T01:01:11;9.27;;;5.38;;
57800;SDS011;43627;42.728;23.256;2023-04-10T01:03:38;8.45;;;4.15;;
57800;SDS011;43627;42.728;23.256;2023-04-10T01:11:31;9.55;;;5.38;;
57800;SDS011;43627;42.728;23.256;2023-04-10T01:14:12;9.98;;;4.85;;
57800;SDS011;43627;42.728;23.256;2023-04-10T01:16:47;8.43;;;5.03;;
57800;SDS011;43627;42.728;23.256;2023-04-10T01:21:55;10.18;;;5.75;;
57800;SDS011;43627;42.728;23.256;2023-04-10T01:27:35;9.32;;;5.57;;
57800;SDS011;43627;42.728;23.256;2023-04-10T01:30:07;11.00;;;5.45;;
57800;SDS011;43627;42.728;23.256;2023-04-10T01:32:37;9.88;;;5.15;;
57800;SDS011;43627;42.728;23.256;2023-04-10T01:35:06;9.70;;;5.65;;
57800;SDS011;43627;42.728;23.256;2023-04-10T01:37:36;13.05;;;6.32;;
57800;SDS011;43627;42.728;23.256;2023-04-10T01:40:07;9.75;;;5.72;;
57800;SDS011;43627;42.728;23.256;2023-04-10T01:42:52;9.25;;;5.45;;
57800;SDS011;43627;42.728;23.256;2023-04-10T01:45:25;8.07;;;5.15;;
57800;SDS011;43627;42.728;23.256;2023-04-10T01:47:54;8.57;;;5.32;;
57800;SDS011;43627;42.728;23.256;2023-04-10T01:50:22;9.40;;;5.72;;
57800;SDS011;43627;42.728;23.256;2023-04-10T01:52:52;9.98;;;5.13;;
57800;SDS011;43627;42.728;23.256;2023-04-10T01:55:19;13.02;;;5.60;;
57800;SDS011;43627;42.728;23.256;2023-04-10T01:57:47;9.18;;;5.05;;
57800;SDS011;43627;42.728;23.256;2023-04-10T02:00:15;9.75;;;5.45;;
57800;SDS011;43627;42.728;23.256;2023-04-10T02:02:42;12.45;;;6.65;;
57800;SDS011;43627;42.728;23.256;2023-04-10T02:05:10;12.10;;;6.13;;
57800;SDS011;43627;42.728;23.256;2023-04-10T02:07:44;10.48;;;5.43;;
57800;SDS011;43627;42.728;23.256;2023-04-10T02:10:18;12.57;;;6.18;;
57800;SDS011;43627;42.728;23.256;2023-04-10T02:12:51;13.40;;;7.57;;
57800;SDS011;43627;42.728;23.256;2023-04-10T02:15:22;10.77;;;7.05;;
57800;SDS011;43627;42.728;23.256;2023-04-10T02:17:51;13.40;;;7.35;;
57800;SDS011;43627;42.728;23.256;2023-04-10T02:20:20;13.23;;;6.78;;
57800;SDS011;43627;42.728;23.256;2023-04-10T02:22:49;13.18;;;6.85;;
57800;SDS011;43627;42.728;23.256;2023-04-10T02:25:15;12.57;;;6.65;;
57800;SDS011;43627;42.728;23.256;2023-04-10T02:27:42;14.50;;;7.95;;
57800;SDS011;43627;42.728;23.256;2023-04-10T02:30:10;12.55;;;7.38;;
57800;SDS011;43627;42.728;23.256;2023-04-10T02:32:37;14.38;;;6.85;;
57800;SDS011;43627;42.728;23.256;2023-04-10T02:35:03;13.40;;;7.38;;
57800;SDS011;43627;42.728;23.256;2023-04-10T02:37:30;11.38;;;6.50;;
57800;SDS011;43627;42.728;23.256;2023-04-10T02:39:58;12.00;;;7.22;;
57800;SDS011;43627;42.728;23.256;2023-04-10T02:42:26;8.30;;;5.47;;
57800;SDS011;43627;42.728;23.256;2023-04-10T02:44:53;9.25;;;5.72;;
57800;SDS011;43627;42.728;23.256;2023-04-10T02:47:19;11.00;;;6.38;;
57800;SDS011;43627;42.728;23.256;2023-04-10T02:49:46;10.68;;;6.20;;
57800;SDS011;43627;42.728;23.256;2023-04-10T02:52:13;9.63;;;5.55;;
57800;SDS011;43627;42.728;23.256;2023-04-10T02:54:40;11.10;;;6.00;;
57800;SDS011;43627;42.728;23.256;2023-04-10T02:57:07;9.73;;;5.78;;
57800;SDS011;43627;42.728;23.256;2023-04-10T02:59:34;9.00;;;5.32;;
57800;SDS011;43627;42.728;23.256;2023-04-10T03:02:00;9.63;;;5.47;;
57800;SDS011;43627;42.728;23.256;2023-04-10T03:04:30;10.18;;;5.60;;
57800;SDS011;43627;42.728;23.256;2023-04-10T03:06:58;12.35;;;5.95;;
57800;SDS011;43627;42.728;23.256;2023-04-10T03:09:25;8.80;;;5.25;;
57800;SDS011;43627;42.728;23.256;2023-04-10T03:11:52;11.20;;;6.18;;
57800;SDS011;43627;42.728;23.256;2023-04-10T03:14:19;11.48;;;6.43;;
57800;SDS011;43627;42.728;23.256;2023-04-10T03:16:46;12.48;;;6.25;;
57800;SDS011;43627;42.728;23.256;2023-04-10T03:19:13;12.27;;;6.95;;
57800;SDS011;43627;42.728;23.256;2023-04-10T03:21:39;11.00;;;6.50;;
57800;SDS011;43627;42.728;23.256;2023-04-10T03:24:06;11.25;;;7.28;;
57800;SDS011;43627;42.728;23.256;2023-04-10T03:26:33;13.68;;;7.90;;
57800;SDS011;43627;42.728;23.256;2023-04-10T03:29:00;11.43;;;7.38;;
57800;SDS011;43627;42.728;23.256;2023-04-10T03:31:27;12.82;;;7.43;;
57800;SDS011;43627;42.728;23.256;2023-04-10T03:33:55;15.38;;;8.50;;
57800;SDS011;43627;42.728;23.256;2023-04-10T03:36:23;20.95;;;10.52;;
57800;SDS011;43627;42.728;23.256;2023-04-10T03:38:49;16.55;;;8.50;;
57800;SDS011;43627;42.728;23.256;2023-04-10T03:41:18;15.05;;;7.93;;
57800;SDS011;43627;42.728;23.256;2023-04-10T03:43:44;15.82;;;8.20;;
57800;SDS011;43627;42.728;23.256;2023-04-10T03:46:11;22.77;;;9.88;;
57800;SDS011;43627;42.728;23.256;2023-04-10T03:48:38;24.95;;;10.63;;
57800;SDS011;43627;42.728;23.256;2023-04-10T03:51:05;23.13;;;10.52;;
57800;SDS011;43627;42.728;23.256;2023-04-10T03:53:33;17.52;;;9.35;;
57800;SDS011;43627;42.728;23.256;2023-04-10T03:56:03;18.58;;;9.45;;
57800;SDS011;43627;42.728;23.256;2023-04-10T03:58:30;18.95;;;9.93;;
57800;SDS011;43627;42.728;23.256;2023-04-10T04:00:57;18.80;;;9.02;;
57800;SDS011;43627;42.728;23.256;2023-04-10T04:03:24;17.95;;;9.85;;
57800;SDS011;43627;42.728;23.256;2023-04-10T04:05:51;17.40;;;9.25;;
57800;SDS011;43627;42.728;23.256;2023-04-10T04:08:18;19.08;;;9.60;;
57800;SDS011;43627;42.728;23.256;2023-04-10T04:10:45;15.50;;;8.65;;
57800;SDS011;43627;42.728;23.256;2023-04-10T04:13:12;16.48;;;8.88;;
57800;SDS011;43627;42.728;23.256;2023-04-10T04:15:39;18.38;;;9.60;;
57800;SDS011;43627;42.728;23.256;2023-04-10T04:18:08;18.45;;;9.90;;
57800;SDS011;43627;42.728;23.256;2023-04-10T04:20:34;14.93;;;9.23;;
57800;SDS011;43627;42.728;23.256;2023-04-10T04:23:02;17.45;;;9.18;;
57800;SDS011;43627;42.728;23.256;2023-04-10T04:25:29;17.02;;;9.38;;
57800;SDS011;43627;42.728;23.256;2023-04-10T04:27:56;18.55;;;9.68;;
57800;SDS011;43627;42.728;23.256;2023-04-10T04:30:23;15.82;;;9.88;;
57800;SDS011;43627;42.728;23.256;2023-04-10T04:32:50;19.88;;;9.35;;
57800;SDS011;43627;42.728;23.256;2023-04-10T04:35:17;17.08;;;9.60;;
57800;SDS011;43627;42.728;23.256;2023-04-10T04:37:44;19.60;;;9.60;;
57800;SDS011;43627;42.728;23.256;2023-04-10T04:40:11;20.45;;;10.15;;
57800;SDS011;43627;42.728;23.256;2023-04-10T04:42:38;20.98;;;9.30;;
57800;SDS011;43627;42.728;23.256;2023-04-10T04:45:05;16.73;;;9.15;;
57800;SDS011;43627;42.728;23.256;2023-04-10T04:47:43;50.17;;;15.95;;
57800;SDS011;43627;42.728;23.256;2023-04-10T04:50:10;33.55;;;13.73;;
57800;SDS011;43627;42.728;23.256;2023-04-10T04:52:37;19.35;;;9.13;;
57800;SDS011;43627;42.728;23.256;2023-04-10T04:55:04;16.80;;;9.38;;
57800;SDS011;43627;42.728;23.256;2023-04-10T04:57:32;13.05;;;7.97;;
57800;SDS011;43627;42.728;23.256;2023-04-10T04:59:59;15.07;;;8.63;;
57800;SDS011;43627;42.728;23.256;2023-04-10T05:02:33;15.68;;;8.50;;
57800;SDS011;43627;42.728;23.256;2023-04-10T05:05:01;14.98;;;9.30;;
57800;SDS011;43627;42.728;23.256;2023-04-10T05:07:29;19.35;;;9.18;;
57800;SDS011;43627;42.728;23.256;2023-04-10T05:09:56;12.95;;;8.32;;
57800;SDS011;43627;42.728;23.256;2023-04-10T05:12:27;13.85;;;7.05;;
57800;SDS011;43627;42.728;23.256;2023-04-10T05:14:58;12.05;;;6.70;;
57800;SDS011;43627;42.728;23.256;2023-04-10T05:17:28;12.65;;;7.22;;
57800;SDS011;43627;42.728;23.256;2023-04-10T05:19:55;11.80;;;6.72;;
57800;SDS011;43627;42.728;23.256;2023-04-10T05:22:22;11.45;;;6.32;;
57800;SDS011;43627;42.728;23.256;2023-04-10T05:24:49;13.82;;;7.60;;
57800;SDS011;43627;42.728;23.256;2023-04-10T05:27:16;10.60;;;6.65;;
57800;SDS011;43627;42.728;23.256;2023-04-10T05:29:44;10.95;;;6.60;;
57800;SDS011;43627;42.728;23.256;2023-04-10T05:32:12;12.50;;;6.82;;
57800;SDS011;43627;42.728;23.256;2023-04-10T05:34:39;13.93;;;7.68;;
57800;SDS011;43627;42.728;23.256;2023-04-10T05:37:07;11.27;;;6.70;;
57800;SDS011;43627;42.728;23.256;2023-04-10T05:39:38;13.48;;;7.90;;
57800;SDS011;43627;42.728;23.256;2023-04-10T05:42:14;12.45;;;7.70;;
57800;SDS011;43627;42.728;23.256;2023-04-10T05:44:43;10.93;;;6.63;;
57800;SDS011;43627;42.728;23.256;2023-04-10T05:47:15;12.60;;;7.05;;
57800;SDS011;43627;42.728;23.256;2023-04-10T05:49:44;12.57;;;7.63;;
57800;SDS011;43627;42.728;23.256;2023-04-10T05:52:11;14.10;;;7.50;;
57800;SDS011;43627;42.728;23.256;2023-04-10T05:54:38;10.98;;;6.90;;
57800;SDS011;43627;42.728;23.256;2023-04-10T05:57:04;12.68;;;7.15;;
57800;SDS011;43627;42.728;23.256;2023-04-10T05:59:31;13.30;;;7.05;;
57800;SDS011;43627;42.728;23.256;2023-04-10T06:01:58;14.20;;;8.73;;
57800;SDS011;43627;42.728;23.256;2023-04-10T06:04:25;19.77;;;9.13;;
57800;SDS011;43627;42.728;23.256;2023-04-10T06:06:52;15.48;;;8.05;;
57800;SDS011;43627;42.728;23.256;2023-04-10T06:09:20;17.67;;;9.85;;
57800;SDS011;43627;42.728;23.256;2023-04-10T06:11:47;15.38;;;9.43;;
57800;SDS011;43627;42.728;23.256;2023-04-10T06:14:16;13.68;;;8.77;;
57800;SDS011;43627;42.728;23.256;2023-04-10T06:16:44;16.90;;;9.63;;
57800;SDS011;43627;42.728;23.256;2023-04-10T06:19:11;16.50;;;9.93;;
57800;SDS011;43627;42.728;23.256;2023-04-10T06:21:37;21.40;;;10.98;;
57800;SDS011;43627;42.728;23.256;2023-04-10T06:24:04;17.48;;;9.95;;
57800;SDS011;43627;42.728;23.256;2023-04-10T06:26:31;15.30;;;10.15;;
57800;SDS011;43627;42.728;23.256;2023-04-10T06:28:58;15.05;;;9.13;;
57800;SDS011;43627;42.728;23.256;2023-04-10T06:31:25;14.68;;;8.80;;
57800;SDS011;43627;42.728;23.256;2023-04-10T06:33:52;19.48;;;9.93;;
57800;SDS011;43627;42.728;23.256;2023-04-10T06:36:19;13.73;;;8.23;;
57800;SDS011;43627;42.728;23.256;2023-04-10T06:38:46;15.15;;;8.85;;
57800;SDS011;43627;42.728;23.256;2023-04-10T06:41:12;17.92;;;9.45;;
57800;SDS011;43627;42.728;23.256;2023-04-10T06:43:39;13.43;;;8.25;;
57800;SDS011;43627;42.728;23.256;2023-04-10T06:46:06;21.10;;;9.60;;
57800;SDS011;43627;42.728;23.256;2023-04-10T06:48:33;13.82;;;7.38;;
57800;SDS011;43627;42.728;23.256;2023-04-10T06:51:00;14.30;;;8.88;;
57800;SDS011;43627;42.728;23.256;2023-04-10T06:53:26;14.90;;;8.73;;
57800;SDS011;43627;42.728;23.256;2023-04-10T06:55:53;14.77;;;8.40;;
57800;SDS011;43627;42.728;23.256;2023-04-10T06:58:20;14.07;;;8.45;;
57800;SDS011;43627;42.728;23.256;2023-04-10T07:00:47;12.88;;;8.18;;
57800;SDS011;43627;42.728;23.256;2023-04-10T07:03:14;19.25;;;9.70;;
57800;SDS011;43627;42.728;23.256;2023-04-10T07:05:41;12.82;;;7.25;;
57800;SDS011;43627;42.728;23.256;2023-04-10T07:08:07;13.88;;;8.25;;
57800;SDS011;43627;42.728;23.256;2023-04-10T07:10:34;11.02;;;6.53;;
57800;SDS011;43627;42.728;23.256;2023-04-10T07:13:01;15.88;;;8.15;;
57800;SDS011;43627;42.728;23.256;2023-04-10T07:15:28;10.60;;;6.72;;
57800;SDS011;43627;42.728;23.256;2023-04-10T07:17:54;16.13;;;8.27;;
57800;SDS011;43627;42.728;23.256;2023-04-10T07:20:21;10.43;;;6.90;;
57800;SDS011;43627;42.728;23.256;2023-04-10T07:22:48;15.88;;;8.27;;
57800;SDS011;43627;42.728;23.256;2023-04-10T07:25:15;14.07;;;7.82;;
57800;SDS011;43627;42.728;23.256;2023-04-10T07:27:43;18.15;;;7.80;;
57800;SDS011;43627;42.728;23.256;2023-04-10T07:30:10;17.45;;;7.72;;
57800;SDS011;43627;42.728;23.256;2023-04-10T07:32:39;12.68;;;7.75;;
57800;SDS011;43627;42.728;23.256;2023-04-10T07:35:07;12.40;;;7.53;;
57800;SDS011;43627;42.728;23.256;2023-04-10T07:37:35;14.43;;;7.85;;
57800;SDS011;43627;42.728;23.256;2023-04-10T07:40:01;16.25;;;8.60;;
57800;SDS011;43627;42.728;23.256;2023-04-10T07:42:28;13.82;;;8.00;;
57800;SDS011;43627;42.728;23.256;2023-04-10T07:44:56;21.75;;;10.10;;
57800;SDS011;43627;42.728;23.256;2023-04-10T07:47:22;16.40;;;8.70;;
57800;SDS011;43627;42.728;23.256;2023-04-10T07:49:49;17.33;;;8.07;;
57800;SDS011;43627;42.728;23.256;2023-04-10T07:52:16;20.13;;;10.18;;
57800;SDS011;43627;42.728;23.256;2023-04-10T07:54:43;20.25;;;11.30;;
57800;SDS011;43627;42.728;23.256;2023-04-10T07:57:10;15.13;;;9.93;;
57800;SDS011;43627;42.728;23.256;2023-04-10T07:59:36;17.92;;;9.82;;
57800;SDS011;43627;42.728;23.256;2023-04-10T08:02:03;17.40;;;9.48;;
57800;SDS011;43627;42.728;23.256;2023-04-10T08:04:30;11.82;;;7.53;;
57800;SDS011;43627;42.728;23.256;2023-04-10T08:06:57;11.75;;;6.32;;
57800;SDS011;43627;42.728;23.256;2023-04-10T08:09:24;10.77;;;6.38;;
57800;SDS011;43627;42.728;23.256;2023-04-10T08:11:50;11.18;;;7.18;;
57800;SDS011;43627;42.728;23.256;2023-04-10T08:14:17;13.57;;;6.72;;
57800;SDS011;43627;42.728;23.256;2023-04-10T08:16:44;10.35;;;5.65;;
57800;SDS011;43627;42.728;23.256;2023-04-10T08:19:11;14.50;;;6.50;;
57800;SDS011;43627;42.728;23.256;2023-04-10T08:21:37;9.95;;;6.13;;
57800;SDS011;43627;42.728;23.256;2023-04-10T08:24:04;12.88;;;5.60;;
57800;SDS011;43627;42.728;23.256;2023-04-10T08:26:31;9.45;;;4.68;;
57800;SDS011;43627;42.728;23.256;2023-04-10T08:28:58;8.68;;;5.68;;
57800;SDS011;43627;42.728;23.256;2023-04-10T08:31:26;10.25;;;5.57;;
57800;SDS011;43627;42.728;23.256;2023-04-10T08:33:54;10.75;;;6.13;;
57800;SDS011;43627;42.728;23.256;2023-04-10T08:36:22;10.25;;;5.50;;
57800;SDS011;43627;42.728;23.256;2023-04-10T08:38:49;15.48;;;8.18;;
57800;SDS011;43627;42.728;23.256;2023-04-10T08:41:16;7.35;;;4.53;;
57800;SDS011;43627;42.728;23.256;2023-04-10T08:43:44;8.93;;;4.80;;
57800;SDS011;43627;42.728;23.256;2023-04-10T08:46:14;8.60;;;5.30;;
57800;SDS011;43627;42.728;23.256;2023-04-10T08:48:46;10.02;;;6.95;;
57800;SDS011;43627;42.728;23.256;2023-04-10T08:51:18;7.78;;;5.35;;
57800;SDS011;43627;42.728;23.256;2023-04-10T08:53:51;8.10;;;5.03;;
57800;SDS011;43627;42.728;23.256;2023-04-10T08:56:22;7.55;;;3.58;;
57800;SDS011;43627;42.728;23.256;2023-04-10T08:58:50;9.05;;;6.03;;
57800;SDS011;43627;42.728;23.256;2023-04-10T09:01:17;8.00;;;5.57;;
57800;SDS011;43627;42.728;23.256;2023-04-10T09:03:46;9.00;;;5.68;;
57800;SDS011;43627;42.728;23.256;2023-04-10T09:06:14;8.63;;;5.68;;
57800;SDS011;43627;42.728;23.256;2023-04-10T09:08:41;10.05;;;6.20;;
57800;SDS011;43627;42.728;23.256;2023-04-10T09:11:07;6.15;;;4.40;;
57800;SDS011;43627;42.728;23.256;2023-04-10T09:13:35;8.43;;;5.35;;
57800;SDS011;43627;42.728;23.256;2023-04-10T09:16:03;8.23;;;4.90;;
57800;SDS011;43627;42.728;23.256;2023-04-10T09:18:40;8.63;;;5.85;;
57800;SDS011;43627;42.728;23.256;2023-04-10T09:21:09;6.25;;;3.90;;
57800;SDS011;43627;42.728;23.256;2023-04-10T09:23:37;10.52;;;6.22;;
57800;SDS011;43627;42.728;23.256;2023-04-10T09:26:50;9.35;;;5.90;;
57800;SDS011;43627;42.728;23.256;2023-04-10T09:29:02;7.80;;;4.95;;
57800;SDS011;43627;42.728;23.256;2023-04-10T09:31:33;11.30;;;6.20;;
57800;SDS011;43627;42.728;23.256;2023-04-10T09:34:17;8.00;;;5.05;;
57800;SDS011;43627;42.728;23.256;2023-04-10T09:36:54;14.35;;;8.30;;
57800;SDS011;43627;42.728;23.256;2023-04-10T09:39:21;8.20;;;4.90;;
57800;SDS011;43627;42.728;23.256;2023-04-10T09:41:58;9.43;;;5.53;;
57800;SDS011;43627;42.728;23.256;2023-04-10T09:46:59;12.00;;;5.78;;
57800;SDS011;43627;42.728;23.256;2023-04-10T09:49:49;8.20;;;4.80;;
57800;SDS011;43627;42.728;23.256;2023-04-10T09:52:23;12.25;;;6.15;;
57800;SDS011;43627;42.728;23.256;2023-04-10T09:54:51;8.70;;;4.93;;
57800;SDS011;43627;42.728;23.256;2023-04-10T09:57:19;7.15;;;5.03;;
57800;SDS011;43627;42.728;23.256;2023-04-10T09:59:48;11.05;;;5.97;;
57800;SDS011;43627;42.728;23.256;2023-04-10T10:02:17;12.30;;;5.90;;
57800;SDS011;43627;42.728;23.256;2023-04-10T10:04:46;15.20;;;6.88;;
57800;SDS011;43627;42.728;23.256;2023-04-10T10:07:17;9.50;;;6.13;;
57800;SDS011;43627;42.728;23.256;2023-04-10T10:09:46;8.93;;;5.93;;
57800;SDS011;43627;42.728;23.256;2023-04-10T10:12:15;8.20;;;5.38;;
57800;SDS011;43627;42.728;23.256;2023-04-10T10:17:36;8.68;;;5.90;;
57800;SDS011;43627;42.728;23.256;2023-04-10T10:20:07;9.10;;;5.57;;
57800;SDS011;43627;42.728;23.256;2023-04-10T10:22:36;10.57;;;6.32;;
57800;SDS011;43627;42.728;23.256;2023-04-10T10:25:03;8.55;;;4.53;;
57800;SDS011;43627;42.728;23.256;2023-04-10T10:27:33;9.30;;;5.85;;
57800;SDS011;43627;42.728;23.256;2023-04-10T10:30:04;9.23;;;5.60;;
57800;SDS011;43627;42.728;23.256;2023-04-10T10:32:53;10.32;;;5.65;;
57800;SDS011;43627;42.728;23.256;2023-04-10T10:35:20;7.30;;;4.93;;
57800;SDS011;43627;42.728;23.256;2023-04-10T10:37:48;11.18;;;5.88;;
57800;SDS011;43627;42.728;23.256;2023-04-10T10:40:20;7.93;;;4.78;;
57800;SDS011;43627;42.728;23.256;2023-04-10T10:43:12;6.60;;;4.45;;
57800;SDS011;43627;42.728;23.256;2023-04-10T10:45:51;6.57;;;5.10;;
57800;SDS011;43627;42.728;23.256;2023-04-10T10:48:24;9.32;;;4.43;;
57800;SDS011;43627;42.728;23.256;2023-04-10T10:50:55;10.27;;;5.93;;
57800;SDS011;43627;42.728;23.256;2023-04-10T10:53:36;5.65;;;4.03;;
57800;SDS011;43627;42.728;23.256;2023-04-10T11:01:18;7.00;;;4.60;;
57800;SDS011;43627;42.728;23.256;2023-04-10T11:03:47;7.20;;;4.72;;
57800;SDS011;43627;42.728;23.256;2023-04-10T11:06:15;6.72;;;4.85;;
57800;SDS011;43627;42.728;23.256;2023-04-10T11:08:45;9.60;;;5.72;;
57800;SDS011;43627;42.728;23.256;2023-04-10T11:11:19;10.70;;;4.70;;
57800;SDS011;43627;42.728;23.256;2023-04-10T11:16:23;7.63;;;4.85;;
57800;SDS011;43627;42.728;23.256;2023-04-10T11:19:09;7.18;;;4.97;;
57800;SDS011;43627;42.728;23.256;2023-04-10T11:21:58;8.50;;;5.10;;
57800;SDS011;43627;42.728;23.256;2023-04-10T11:24:26;10.38;;;4.40;;
57800;SDS011;43627;42.728;23.256;2023-04-10T11:26:54;6.35;;;4.30;;
57800;SDS011;43627;42.728;23.256;2023-04-10T11:31:57;6.05;;;4.25;;
57800;SDS011;43627;42.728;23.256;2023-04-10T11:34:26;8.18;;;4.55;;
57800;SDS011;43627;42.728;23.256;2023-04-10T11:36:53;13.07;;;5.25;;
57800;SDS011;43627;42.728;23.256;2023-04-10T11:39:20;5.80;;;4.28;;
57800;SDS011;43627;42.728;23.256;2023-04-10T11:41:48;11.48;;;5.18;;
57800;SDS011;43627;42.728;23.256;2023-04-10T11:47:02;6.50;;;4.10;;
57800;SDS011;43627;42.728;23.256;2023-04-10T11:49:29;7.07;;;4.65;;
57800;SDS011;43627;42.728;23.256;2023-04-10T11:51:58;9.35;;;4.82;;
57800;SDS011;43627;42.728;23.256;2023-04-10T11:54:25;6.68;;;4.60;;
57800;SDS011;43627;42.728;23.256;2023-04-10T11:57:05;6.60;;;3.95;;
57800;SDS011;43627;42.728;23.256;2023-04-10T11:59:34;9.88;;;5.38;;
57800;SDS011;43627;42.728;23.256;2023-04-10T12:02:11;8.10;;;4.93;;
57800;SDS011;43627;42.728;23.256;2023-04-10T12:04:41;6.43;;;4.35;;
57800;SDS011;43627;42.728;23.256;2023-04-10T12:07:09;9.73;;;5.18;;
57800;SDS011;43627;42.728;23.256;2023-04-10T12:09:36;9.10;;;5.47;;
57800;SDS011;43627;42.728;23.256;2023-04-10T12:12:04;7.65;;;4.90;;
57800;SDS011;43627;42.728;23.256;2023-04-10T12:14:33;9.25;;;5.32;;
57800;SDS011;43627;42.728;23.256;2023-04-10T12:17:01;7.60;;;4.72;;
57800;SDS011;43627;42.728;23.256;2023-04-10T12:19:29;9.88;;;5.63;;
57800;SDS011;43627;42.728;23.256;2023-04-10T12:21:56;10.93;;;5.32;;
57800;SDS011;43627;42.728;23.256;2023-04-10T12:24:40;5.18;;;3.75;;
57800;SDS011;43627;42.728;23.256;2023-04-10T12:27:18;8.68;;;5.45;;
57800;SDS011;43627;42.728;23.256;2023-04-10T12:29:45;7.78;;;5.25;;
57800;SDS011;43627;42.728;23.256;2023-04-10T12:32:14;7.32;;;4.85;;
57800;SDS011;43627;42.728;23.256;2023-04-10T12:34:41;10.93;;;6.80;;
57800;SDS011;43627;42.728;23.256;2023-04-10T12:37:14;9.88;;;5.55;;
57800;SDS011;43627;42.728;23.256;2023-04-10T12:39:41;12.07;;;7.07;;
57800;SDS011;43627;42.728;23.256;2023-04-10T12:42:14;10.60;;;5.97;;
57800;SDS011;43627;42.728;23.256;2023-04-10T12:44:58;6.03;;;3.97;;
57800;SDS011;43627;42.728;23.256;2023-04-10T12:47:27;7.85;;;3.45;;
57800;SDS011;43627;42.728;23.256;2023-04-10T12:50:11;9.57;;;4.18;;
57800;SDS011;43627;42.728;23.256;2023-04-10T12:52:41;13.30;;;5.80;;
57800;SDS011;43627;42.728;23.256;2023-04-10T12:55:19;8.90;;;5.45;;
57800;SDS011;43627;42.728;23.256;2023-04-10T12:57:46;10.77;;;5.47;;
57800;SDS011;43627;42.728;23.256;2023-04-10T13:00:15;9.23;;;5.70;;
57800;SDS011;43627;42.728;23.256;2023-04-10T13:02:44;9.88;;;6.22;;
57800;SDS011;43627;42.728;23.256;2023-04-10T13:05:12;8.52;;;5.47;;
57800;SDS011;43627;42.728;23.256;2023-04-10T13:07:38;10.50;;;6.75;;
57800;SDS011;43627;42.728;23.256;2023-04-10T13:10:06;13.43;;;7.80;;
57800;SDS011;43627;42.728;23.256;2023-04-10T13:12:39;13.30;;;7.53;;
57800;SDS011;43627;42.728;23.256;2023-04-10T13:15:07;11.25;;;6.47;;
57800;SDS011;43627;42.728;23.256;2023-04-10T13:17:34;10.35;;;6.57;;
57800;SDS011;43627;42.728;23.256;2023-04-10T13:20:01;11.07;;;6.32;;
57800;SDS011;43627;42.728;23.256;2023-04-10T13:22:28;12.13;;;6.32;;
57800;SDS011;43627;42.728;23.256;2023-04-10T13:24:55;10.35;;;6.15;;
57800;SDS011;43627;42.728;23.256;2023-04-10T13:27:22;10.70;;;6.47;;
57800;SDS011;43627;42.728;23.256;2023-04-10T13:29:49;12.18;;;7.97;;
57800;SDS011;43627;42.728;23.256;2023-04-10T13:32:15;12.18;;;7.85;;
57800;SDS011;43627;42.728;23.256;2023-04-10T13:34:42;13.90;;;8.23;;
57800;SDS011;43627;42.728;23.256;2023-04-10T13:37:09;14.65;;;8.68;;
57800;SDS011;43627;42.728;23.256;2023-04-10T13:39:42;11.25;;;6.97;;
57800;SDS011;43627;42.728;23.256;2023-04-10T13:42:08;14.32;;;8.00;;
57800;SDS011;43627;42.728;23.256;2023-04-10T13:44:35;13.80;;;8.52;;
57800;SDS011;43627;42.728;23.256;2023-04-10T13:47:02;8.45;;;5.50;;
57800;SDS011;43627;42.728;23.256;2023-04-10T13:49:29;9.50;;;5.70;;
57800;SDS011;43627;42.728;23.256;2023-04-10T13:51:56;7.70;;;4.80;;
57800;SDS011;43627;42.728;23.256;2023-04-10T13:54:23;6.38;;;4.68;;
57800;SDS011;43627;42.728;23.256;2023-04-10T13:56:50;7.78;;;4.55;;
57800;SDS011;43627;42.728;23.256;2023-04-10T13:59:16;7.45;;;4.88;;
57800;SDS011;43627;42.728;23.256;2023-04-10T14:01:43;7.30;;;4.53;;
57800;SDS011;43627;42.728;23.256;2023-04-10T14:04:10;18.25;;;10.77;;
57800;SDS011;43627;42.728;23.256;2023-04-10T14:06:36;8.50;;;4.60;;
57800;SDS011;43627;42.728;23.256;2023-04-10T14:09:03;5.22;;;3.75;;
57800;SDS011;43627;42.728;23.256;2023-04-10T14:11:30;4.88;;;2.78;;
57800;SDS011;43627;42.728;23.256;2023-04-10T14:13:57;4.95;;;3.03;;
57800;SDS011;43627;42.728;23.256;2023-04-10T14:16:23;3.22;;;2.30;;
57800;SDS011;43627;42.728;23.256;2023-04-10T14:18:50;5.78;;;2.83;;
57800;SDS011;43627;42.728;23.256;2023-04-10T14:21:17;4.13;;;2.95;;
57800;SDS011;43627;42.728;23.256;2023-04-10T14:23:46;4.18;;;2.47;;
57800;SDS011;43627;42.728;23.256;2023-04-10T14:26:15;4.82;;;2.85;;
57800;SDS011;43627;42.728;23.256;2023-04-10T14:28:42;3.85;;;2.80;;
57800;SDS011;43627;42.728;23.256;2023-04-10T14:31:09;4.40;;;3.40;;
57800;SDS011;43627;42.728;23.256;2023-04-10T14:33:37;4.63;;;2.70;;
57800;SDS011;43627;42.728;23.256;2023-04-10T14:36:04;4.30;;;3.20;;
57800;SDS011;43627;42.728;23.256;2023-04-10T14:38:31;5.30;;;3.40;;
57800;SDS011;43627;42.728;23.256;2023-04-10T14:40:58;8.48;;;3.63;;
57800;SDS011;43627;42.728;23.256;2023-04-10T14:43:25;7.88;;;4.22;;
57800;SDS011;43627;42.728;23.256;2023-04-10T14:45:52;10.18;;;4.53;;
57800;SDS011;43627;42.728;23.256;2023-04-10T14:48:19;9.95;;;4.85;;
57800;SDS011;43627;42.728;23.256;2023-04-10T14:50:46;9.68;;;4.45;;
57800;SDS011;43627;42.728;23.256;2023-04-10T14:53:14;8.52;;;4.45;;
57800;SDS011;43627;42.728;23.256;2023-04-10T14:55:41;21.30;;;11.25;;
57800;SDS011;43627;42.728;23.256;2023-04-10T14:58:08;8.95;;;5.38;;
57800;SDS011;43627;42.728;23.256;2023-04-10T15:00:36;7.88;;;4.85;;
57800;SDS011;43627;42.728;23.256;2023-04-10T15:03:03;11.15;;;6.10;;
57800;SDS011;43627;42.728;23.256;2023-04-10T15:05:31;7.20;;;5.10;;